createdAt,value
2022-10-11T06:15:14.398Z,6.20
2022-10-11T06:25:14.217Z,6.50
2022-10-11T06:35:14.339Z,6.75
2022-10-11T06:45:14.354Z,7.16
2022-10-11T06:55:14.178Z,7.58
2022-10-11T07:05:14.340Z,7.89
2022-10-11T07:15:14.177Z,8.64
2022-10-11T07:25:14.428Z,8.69
2022-10-11T07:35:14.235Z,9.19
2022-10-11T07:45:14.352Z,9.59
2022-10-11T07:55:14.406Z,10.07
2022-10-11T08:05:14.301Z,11.00
2022-10-11T08:15:14.459Z,10.92
2022-10-11T08:25:14.337Z,11.42
2022-10-11T08:35:14.437Z,12.20
2022-10-11T08:45:14.723Z,12.61
2022-10-11T08:55:14.782Z,13.26
2022-10-11T09:05:14.686Z,13.42
2022-10-11T09:15:14.816Z,13.05
2022-10-11T09:25:14.867Z,13.62
2022-10-11T09:35:14.801Z,13.67
2022-10-11T09:45:14.836Z,13.89
2022-10-11T09:55:19.539Z,13.95
2022-10-11T10:05:15.130Z,14.27
2022-10-11T10:15:14.856Z,13.83
2022-10-11T10:25:14.893Z,12.90
2022-10-11T10:35:14.891Z,13.57
2022-10-11T10:45:20.097Z,13.33
2022-10-11T10:55:14.842Z,13.67
2022-10-11T11:05:14.765Z,14.23
2022-10-11T11:15:14.674Z,14.24
2022-10-11T11:25:14.612Z,14.28
2022-10-11T11:35:14.626Z,14.63
2022-10-11T11:45:14.824Z,14.98
2022-10-11T11:55:14.817Z,14.97
2022-10-11T12:05:14.863Z,14.43
2022-10-11T12:15:14.855Z,14.27
2022-10-11T12:25:18.394Z,14.84
2022-10-11T12:35:14.887Z,14.72
2022-10-11T12:45:15.156Z,14.91
2022-10-11T12:55:14.922Z,15.18
2022-10-11T13:05:14.897Z,14.13
2022-10-11T13:15:14.997Z,13.89
2022-10-11T13:25:15.048Z,14.04
2022-10-11T13:35:15.093Z,13.28
2022-10-11T13:45:14.807Z,13.10
2022-10-11T13:55:14.808Z,14.05
2022-10-11T14:05:14.925Z,15.04
2022-10-11T14:15:15.085Z,14.95
2022-10-11T14:25:14.951Z,14.62
2022-10-11T14:35:14.993Z,14.36
2022-10-11T14:45:14.929Z,14.57
2022-10-11T14:55:14.909Z,14.44
2022-10-11T15:05:14.919Z,14.67
2022-10-11T15:15:16.932Z,15.50
2022-10-11T15:25:14.942Z,14.64
2022-10-11T15:35:14.955Z,14.95
2022-10-11T15:45:15.109Z,14.92
2022-10-11T15:55:15.304Z,13.78
2022-10-11T16:05:15.171Z,12.13
2022-10-11T16:15:15.167Z,11.08
2022-10-11T16:25:15.176Z,10.40
2022-10-11T16:35:15.113Z,9.82
2022-10-11T16:45:15.083Z,9.37
2022-10-11T16:55:15.274Z,8.84
2022-10-11T17:05:15.117Z,8.60
2022-10-11T17:15:15.115Z,8.37
2022-10-11T17:25:15.287Z,8.11
2022-10-11T17:35:15.144Z,7.73
2022-10-11T17:45:15.179Z,7.41
2022-10-11T17:55:15.190Z,7.11
2022-10-11T18:05:15.122Z,6.86
2022-10-11T18:15:15.177Z,6.89
2022-10-11T18:25:15.204Z,6.50
2022-10-11T18:35:15.203Z,6.16
2022-10-11T18:45:15.487Z,5.95
2022-10-11T18:55:15.609Z,5.61
2022-10-11T19:05:15.599Z,5.71
2022-10-11T19:15:15.845Z,6.06
